sensor_id;sensor_type;location;lat;lon;timestamp;P1;durP1;ratioP1;P2;durP2;ratioP2
12603;SDS011;6367;52.508;13.284;2023-01-29T00:01:15;8.63;;;7.10;;
12603;SDS011;6367;52.508;13.284;2023-01-29T00:03:40;7.17;;;6.37;;
12603;SDS011;6367;52.508;13.284;2023-01-29T00:06:06;9.40;;;7.57;;
12603;SDS011;6367;52.508;13.284;2023-01-29T00:08:33;8.80;;;7.00;;
12603;SDS011;6367;52.508;13.284;2023-01-29T00:11:04;9.67;;;6.10;;
12603;SDS011;6367;52.508;13.284;2023-01-29T00:13:31;10.47;;;7.80;;
12603;SDS011;6367;52.508;13.284;2023-01-29T00:15:58;8.77;;;7.40;;
12603;SDS011;6367;52.508;13.284;2023-01-29T00:18:25;9.57;;;7.50;;
12603;SDS011;6367;52.508;13.284;2023-01-29T00:20:52;11.00;;;7.70;;
12603;SDS011;6367;52.508;13.284;2023-01-29T00:23:18;8.67;;;7.37;;
12603;SDS011;6367;52.508;13.284;2023-01-29T00:25:44;10.17;;;7.83;;
12603;SDS011;6367;52.508;13.284;2023-01-29T00:28:10;9.87;;;8.17;;
12603;SDS011;6367;52.508;13.284;2023-01-29T00:30:37;8.73;;;7.80;;
12603;SDS011;6367;52.508;13.284;2023-01-29T00:33:03;14.00;;;8.00;;
12603;SDS011;6367;52.508;13.284;2023-01-29T00:35:29;10.57;;;8.40;;
12603;SDS011;6367;52.508;13.284;2023-01-29T00:37:56;10.70;;;8.83;;
12603;SDS011;6367;52.508;13.284;2023-01-29T00:40:22;11.63;;;9.97;;
12603;SDS011;6367;52.508;13.284;2023-01-29T00:42:49;10.80;;;8.30;;
12603;SDS011;6367;52.508;13.284;2023-01-29T00:45:34;13.53;;;9.27;;
12603;SDS011;6367;52.508;13.284;2023-01-29T00:48:01;11.97;;;9.80;;
12603;SDS011;6367;52.508;13.284;2023-01-29T00:50:28;12.20;;;9.00;;
12603;SDS011;6367;52.508;13.284;2023-01-29T00:52:54;12.60;;;9.30;;
12603;SDS011;6367;52.508;13.284;2023-01-29T00:55:20;10.47;;;9.23;;
12603;SDS011;6367;52.508;13.284;2023-01-29T00:57:46;11.70;;;9.87;;
12603;SDS011;6367;52.508;13.284;2023-01-29T01:00:15;10.93;;;8.50;;
12603;SDS011;6367;52.508;13.284;2023-01-29T01:02:41;13.30;;;9.60;;
12603;SDS011;6367;52.508;13.284;2023-01-29T01:05:26;12.73;;;9.27;;
12603;SDS011;6367;52.508;13.284;2023-01-29T01:07:54;10.17;;;9.07;;
12603;SDS011;6367;52.508;13.284;2023-01-29T01:10:22;10.23;;;8.30;;
12603;SDS011;6367;52.508;13.284;2023-01-29T01:15:27;11.50;;;9.50;;
12603;SDS011;6367;52.508;13.284;2023-01-29T01:17:56;17.33;;;10.40;;
12603;SDS011;6367;52.508;13.284;2023-01-29T01:20:24;11.43;;;9.43;;
12603;SDS011;6367;52.508;13.284;2023-01-29T01:22:52;10.37;;;9.20;;
12603;SDS011;6367;52.508;13.284;2023-01-29T01:25:19;11.40;;;10.20;;
12603;SDS011;6367;52.508;13.284;2023-01-29T01:27:45;14.50;;;10.03;;
12603;SDS011;6367;52.508;13.284;2023-01-29T01:30:14;13.57;;;10.90;;
12603;SDS011;6367;52.508;13.284;2023-01-29T01:32:41;10.57;;;9.47;;
12603;SDS011;6367;52.508;13.284;2023-01-29T01:35:07;12.13;;;9.63;;
12603;SDS011;6367;52.508;13.284;2023-01-29T01:37:34;12.43;;;10.37;;
12603;SDS011;6367;52.508;13.284;2023-01-29T01:40:07;12.33;;;10.53;;
12603;SDS011;6367;52.508;13.284;2023-01-29T01:42:41;16.00;;;11.10;;
12603;SDS011;6367;52.508;13.284;2023-01-29T01:47:47;15.60;;;10.90;;
12603;SDS011;6367;52.508;13.284;2023-01-29T01:52:46;12.80;;;9.70;;
12603;SDS011;6367;52.508;13.284;2023-01-29T01:55:17;14.20;;;11.00;;
12603;SDS011;6367;52.508;13.284;2023-01-29T01:57:46;13.23;;;10.67;;
12603;SDS011;6367;52.508;13.284;2023-01-29T02:00:16;12.40;;;9.77;;
12603;SDS011;6367;52.508;13.284;2023-01-29T02:02:44;13.83;;;11.13;;
12603;SDS011;6367;52.508;13.284;2023-01-29T02:05:31;13.33;;;11.00;;
12603;SDS011;6367;52.508;13.284;2023-01-29T02:08:18;14.97;;;9.77;;
12603;SDS011;6367;52.508;13.284;2023-01-29T02:11:17;13.60;;;10.77;;
12603;SDS011;6367;52.508;13.284;2023-01-29T02:13:43;14.50;;;11.13;;
12603;SDS011;6367;52.508;13.284;2023-01-29T02:16:09;14.30;;;11.77;;
12603;SDS011;6367;52.508;13.284;2023-01-29T02:18:35;15.50;;;11.30;;
12603;SDS011;6367;52.508;13.284;2023-01-29T02:37:43;15.37;;;11.10;;
12603;SDS011;6367;52.508;13.284;2023-01-29T02:43:15;12.93;;;10.50;;
12603;SDS011;6367;52.508;13.284;2023-01-29T02:48:49;15.73;;;11.43;;
12603;SDS011;6367;52.508;13.284;2023-01-29T02:54:23;22.23;;;12.63;;
12603;SDS011;6367;52.508;13.284;2023-01-29T02:56:58;14.37;;;10.83;;
12603;SDS011;6367;52.508;13.284;2023-01-29T02:59:33;17.20;;;12.10;;
12603;SDS011;6367;52.508;13.284;2023-01-29T03:02:14;16.10;;;11.50;;
12603;SDS011;6367;52.508;13.284;2023-01-29T03:04:46;14.87;;;10.90;;
12603;SDS011;6367;52.508;13.284;2023-01-29T03:07:19;16.20;;;11.90;;
12603;SDS011;6367;52.508;13.284;2023-01-29T03:10:21;14.60;;;11.10;;
12603;SDS011;6367;52.508;13.284;2023-01-29T03:12:57;15.00;;;11.67;;
12603;SDS011;6367;52.508;13.284;2023-01-29T03:15:28;15.90;;;12.10;;
12603;SDS011;6367;52.508;13.284;2023-01-29T03:18:07;16.70;;;11.90;;
12603;SDS011;6367;52.508;13.284;2023-01-29T03:20:42;19.13;;;11.63;;
12603;SDS011;6367;52.508;13.284;2023-01-29T03:23:22;14.30;;;11.13;;
12603;SDS011;6367;52.508;13.284;2023-01-29T03:26:10;14.77;;;11.77;;
12603;SDS011;6367;52.508;13.284;2023-01-29T03:28:57;15.10;;;12.40;;
12603;SDS011;6367;52.508;13.284;2023-01-29T03:31:43;15.57;;;11.70;;
12603;SDS011;6367;52.508;13.284;2023-01-29T03:34:42;15.37;;;13.00;;
12603;SDS011;6367;52.508;13.284;2023-01-29T03:37:22;13.40;;;11.83;;
12603;SDS011;6367;52.508;13.284;2023-01-29T03:40:03;20.30;;;11.53;;
12603;SDS011;6367;52.508;13.284;2023-01-29T03:45:15;14.80;;;12.27;;
12603;SDS011;6367;52.508;13.284;2023-01-29T03:47:51;13.97;;;12.07;;
12603;SDS011;6367;52.508;13.284;2023-01-29T03:55:42;14.97;;;11.33;;
12603;SDS011;6367;52.508;13.284;2023-01-29T03:58:23;16.50;;;12.43;;
12603;SDS011;6367;52.508;13.284;2023-01-29T04:01:01;13.33;;;10.97;;
12603;SDS011;6367;52.508;13.284;2023-01-29T04:03:53;23.13;;;12.00;;
12603;SDS011;6367;52.508;13.284;2023-01-29T04:06:26;16.57;;;11.80;;
12603;SDS011;6367;52.508;13.284;2023-01-29T04:09:10;14.87;;;12.57;;
12603;SDS011;6367;52.508;13.284;2023-01-29T04:11:44;16.33;;;12.33;;
12603;SDS011;6367;52.508;13.284;2023-01-29T04:14:14;15.87;;;12.40;;
12603;SDS011;6367;52.508;13.284;2023-01-29T04:16:43;18.30;;;13.07;;
12603;SDS011;6367;52.508;13.284;2023-01-29T04:19:13;18.33;;;11.57;;
12603;SDS011;6367;52.508;13.284;2023-01-29T04:21:39;15.10;;;12.50;;
12603;SDS011;6367;52.508;13.284;2023-01-29T04:24:05;16.07;;;12.20;;
12603;SDS011;6367;52.508;13.284;2023-01-29T04:26:38;17.77;;;13.20;;
12603;SDS011;6367;52.508;13.284;2023-01-29T04:31:59;19.67;;;13.67;;
12603;SDS011;6367;52.508;13.284;2023-01-29T04:34:58;18.70;;;13.00;;
12603;SDS011;6367;52.508;13.284;2023-01-29T04:37:52;16.90;;;13.17;;
12603;SDS011;6367;52.508;13.284;2023-01-29T04:43:33;17.20;;;13.60;;
12603;SDS011;6367;52.508;13.284;2023-01-29T04:51:46;21.07;;;13.30;;
12603;SDS011;6367;52.508;13.284;2023-01-29T04:54:17;22.27;;;15.13;;
12603;SDS011;6367;52.508;13.284;2023-01-29T05:02:47;19.87;;;14.23;;
12603;SDS011;6367;52.508;13.284;2023-01-29T05:05:14;19.47;;;13.90;;
12603;SDS011;6367;52.508;13.284;2023-01-29T05:07:43;17.40;;;13.90;;
12603;SDS011;6367;52.508;13.284;2023-01-29T05:10:11;22.67;;;14.43;;
12603;SDS011;6367;52.508;13.284;2023-01-29T05:12:38;19.07;;;14.77;;
12603;SDS011;6367;52.508;13.284;2023-01-29T05:15:08;20.40;;;14.40;;
12603;SDS011;6367;52.508;13.284;2023-01-29T05:17:38;20.00;;;15.43;;
12603;SDS011;6367;52.508;13.284;2023-01-29T05:20:04;22.77;;;16.13;;
12603;SDS011;6367;52.508;13.284;2023-01-29T05:22:31;19.57;;;13.70;;
12603;SDS011;6367;52.508;13.284;2023-01-29T05:25:00;19.20;;;14.57;;
12603;SDS011;6367;52.508;13.284;2023-01-29T05:27:28;23.80;;;13.17;;
12603;SDS011;6367;52.508;13.284;2023-01-29T05:30:17;19.20;;;13.97;;
12603;SDS011;6367;52.508;13.284;2023-01-29T05:32:43;21.10;;;15.80;;
12603;SDS011;6367;52.508;13.284;2023-01-29T05:35:09;19.20;;;14.53;;
12603;SDS011;6367;52.508;13.284;2023-01-29T05:37:35;21.57;;;14.40;;
12603;SDS011;6367;52.508;13.284;2023-01-29T05:40:00;19.63;;;12.97;;
12603;SDS011;6367;52.508;13.284;2023-01-29T05:42:26;17.83;;;14.07;;
12603;SDS011;6367;52.508;13.284;2023-01-29T05:44:52;20.50;;;14.57;;
12603;SDS011;6367;52.508;13.284;2023-01-29T05:47:18;16.67;;;13.20;;
12603;SDS011;6367;52.508;13.284;2023-01-29T05:49:45;18.03;;;13.70;;
12603;SDS011;6367;52.508;13.284;2023-01-29T05:52:10;20.07;;;14.40;;
12603;SDS011;6367;52.508;13.284;2023-01-29T05:54:36;25.80;;;16.90;;
12603;SDS011;6367;52.508;13.284;2023-01-29T05:57:01;21.17;;;14.30;;
12603;SDS011;6367;52.508;13.284;2023-01-29T05:59:27;19.93;;;14.90;;
12603;SDS011;6367;52.508;13.284;2023-01-29T06:01:55;20.73;;;15.50;;
12603;SDS011;6367;52.508;13.284;2023-01-29T06:04:21;17.80;;;13.93;;
12603;SDS011;6367;52.508;13.284;2023-01-29T06:06:47;21.50;;;14.73;;
12603;SDS011;6367;52.508;13.284;2023-01-29T06:09:12;20.17;;;14.50;;
12603;SDS011;6367;52.508;13.284;2023-01-29T06:11:38;23.50;;;15.40;;
12603;SDS011;6367;52.508;13.284;2023-01-29T06:14:04;22.93;;;15.23;;
12603;SDS011;6367;52.508;13.284;2023-01-29T06:16:29;20.40;;;15.17;;
12603;SDS011;6367;52.508;13.284;2023-01-29T06:18:55;20.53;;;14.57;;
12603;SDS011;6367;52.508;13.284;2023-01-29T06:21:21;21.87;;;15.10;;
12603;SDS011;6367;52.508;13.284;2023-01-29T06:23:46;18.70;;;14.43;;
12603;SDS011;6367;52.508;13.284;2023-01-29T06:26:14;25.20;;;17.17;;
12603;SDS011;6367;52.508;13.284;2023-01-29T06:28:40;20.80;;;15.50;;
12603;SDS011;6367;52.508;13.284;2023-01-29T06:31:06;21.27;;;15.00;;
12603;SDS011;6367;52.508;13.284;2023-01-29T06:33:33;21.43;;;15.23;;
12603;SDS011;6367;52.508;13.284;2023-01-29T06:35:59;22.30;;;15.40;;
12603;SDS011;6367;52.508;13.284;2023-01-29T06:38:27;21.53;;;14.40;;
12603;SDS011;6367;52.508;13.284;2023-01-29T06:40:53;21.63;;;14.87;;
12603;SDS011;6367;52.508;13.284;2023-01-29T06:43:19;21.00;;;15.40;;
12603;SDS011;6367;52.508;13.284;2023-01-29T06:45:49;22.17;;;16.30;;
12603;SDS011;6367;52.508;13.284;2023-01-29T06:48:18;22.53;;;15.37;;
12603;SDS011;6367;52.508;13.284;2023-01-29T06:50:44;21.87;;;15.27;;
12603;SDS011;6367;52.508;13.284;2023-01-29T06:53:10;19.67;;;14.97;;
12603;SDS011;6367;52.508;13.284;2023-01-29T06:55:36;21.90;;;14.60;;
12603;SDS011;6367;52.508;13.284;2023-01-29T06:58:05;20.77;;;14.50;;
12603;SDS011;6367;52.508;13.284;2023-01-29T07:00:32;21.63;;;15.03;;
12603;SDS011;6367;52.508;13.284;2023-01-29T07:02:58;21.10;;;15.37;;
12603;SDS011;6367;52.508;13.284;2023-01-29T07:05:23;21.33;;;14.83;;
12603;SDS011;6367;52.508;13.284;2023-01-29T07:07:49;25.27;;;16.43;;
12603;SDS011;6367;52.508;13.284;2023-01-29T07:10:14;28.83;;;16.20;;
12603;SDS011;6367;52.508;13.284;2023-01-29T07:12:40;24.83;;;16.67;;
12603;SDS011;6367;52.508;13.284;2023-01-29T07:15:06;20.87;;;15.37;;
12603;SDS011;6367;52.508;13.284;2023-01-29T07:17:32;22.00;;;15.77;;
12603;SDS011;6367;52.508;13.284;2023-01-29T07:19:58;25.20;;;15.87;;
12603;SDS011;6367;52.508;13.284;2023-01-29T07:22:23;21.70;;;15.73;;
12603;SDS011;6367;52.508;13.284;2023-01-29T07:24:49;22.50;;;16.17;;
12603;SDS011;6367;52.508;13.284;2023-01-29T07:27:15;21.97;;;15.40;;
12603;SDS011;6367;52.508;13.284;2023-01-29T07:29:40;27.07;;;18.17;;
12603;SDS011;6367;52.508;13.284;2023-01-29T07:32:06;28.83;;;16.90;;
12603;SDS011;6367;52.508;13.284;2023-01-29T07:34:32;25.90;;;17.73;;
12603;SDS011;6367;52.508;13.284;2023-01-29T07:36:58;22.90;;;16.13;;
12603;SDS011;6367;52.508;13.284;2023-01-29T07:39:23;22.90;;;15.73;;
12603;SDS011;6367;52.508;13.284;2023-01-29T07:41:49;24.73;;;17.20;;
12603;SDS011;6367;52.508;13.284;2023-01-29T07:44:15;21.70;;;15.27;;
12603;SDS011;6367;52.508;13.284;2023-01-29T07:46:40;23.87;;;15.87;;
12603;SDS011;6367;52.508;13.284;2023-01-29T07:49:06;26.63;;;16.03;;
12603;SDS011;6367;52.508;13.284;2023-01-29T07:51:32;27.27;;;17.23;;
12603;SDS011;6367;52.508;13.284;2023-01-29T07:53:57;27.53;;;17.60;;
12603;SDS011;6367;52.508;13.284;2023-01-29T07:56:23;25.30;;;17.60;;
12603;SDS011;6367;52.508;13.284;2023-01-29T07:58:49;22.67;;;17.00;;
12603;SDS011;6367;52.508;13.284;2023-01-29T08:01:14;22.77;;;17.03;;
12603;SDS011;6367;52.508;13.284;2023-01-29T08:03:43;28.93;;;19.43;;
12603;SDS011;6367;52.508;13.284;2023-01-29T08:06:09;23.70;;;16.50;;
12603;SDS011;6367;52.508;13.284;2023-01-29T08:08:34;26.00;;;16.50;;
12603;SDS011;6367;52.508;13.284;2023-01-29T08:11:01;23.17;;;16.30;;
12603;SDS011;6367;52.508;13.284;2023-01-29T08:13:27;22.80;;;15.90;;
12603;SDS011;6367;52.508;13.284;2023-01-29T08:15:53;27.93;;;18.10;;
12603;SDS011;6367;52.508;13.284;2023-01-29T08:18:24;25.70;;;17.33;;
12603;SDS011;6367;52.508;13.284;2023-01-29T08:20:49;28.20;;;18.80;;
12603;SDS011;6367;52.508;13.284;2023-01-29T08:23:15;31.90;;;17.47;;
12603;SDS011;6367;52.508;13.284;2023-01-29T08:25:41;27.83;;;16.80;;
12603;SDS011;6367;52.508;13.284;2023-01-29T08:28:07;24.30;;;16.90;;
12603;SDS011;6367;52.508;13.284;2023-01-29T08:30:33;24.80;;;17.00;;
12603;SDS011;6367;52.508;13.284;2023-01-29T08:32:59;24.10;;;16.20;;
12603;SDS011;6367;52.508;13.284;2023-01-29T08:35:26;24.53;;;16.83;;
12603;SDS011;6367;52.508;13.284;2023-01-29T08:37:53;28.23;;;17.90;;
12603;SDS011;6367;52.508;13.284;2023-01-29T08:40:20;25.90;;;16.00;;
12603;SDS011;6367;52.508;13.284;2023-01-29T08:42:45;27.50;;;18.90;;
12603;SDS011;6367;52.508;13.284;2023-01-29T08:45:11;28.60;;;18.00;;
12603;SDS011;6367;52.508;13.284;2023-01-29T08:47:37;23.33;;;16.77;;
12603;SDS011;6367;52.508;13.284;2023-01-29T08:50:02;28.00;;;18.90;;
12603;SDS011;6367;52.508;13.284;2023-01-29T08:52:28;24.90;;;17.23;;
12603;SDS011;6367;52.508;13.284;2023-01-29T08:54:54;23.07;;;16.97;;
12603;SDS011;6367;52.508;13.284;2023-01-29T08:57:19;24.03;;;17.53;;
12603;SDS011;6367;52.508;13.284;2023-01-29T08:59:45;25.90;;;17.30;;
12603;SDS011;6367;52.508;13.284;2023-01-29T09:02:11;25.30;;;17.10;;
12603;SDS011;6367;52.508;13.284;2023-01-29T09:04:37;25.23;;;15.50;;
12603;SDS011;6367;52.508;13.284;2023-01-29T09:07:02;33.43;;;17.80;;
12603;SDS011;6367;52.508;13.284;2023-01-29T09:09:28;23.50;;;16.37;;
12603;SDS011;6367;52.508;13.284;2023-01-29T09:11:54;26.83;;;17.77;;
12603;SDS011;6367;52.508;13.284;2023-01-29T09:14:19;26.63;;;16.83;;
12603;SDS011;6367;52.508;13.284;2023-01-29T09:16:45;22.93;;;16.37;;
12603;SDS011;6367;52.508;13.284;2023-01-29T09:19:10;25.70;;;17.10;;
12603;SDS011;6367;52.508;13.284;2023-01-29T09:21:36;28.33;;;16.20;;
12603;SDS011;6367;52.508;13.284;2023-01-29T09:24:02;22.77;;;15.57;;
12603;SDS011;6367;52.508;13.284;2023-01-29T09:26:28;21.93;;;15.63;;
12603;SDS011;6367;52.508;13.284;2023-01-29T09:28:53;23.73;;;17.13;;
12603;SDS011;6367;52.508;13.284;2023-01-29T09:31:19;25.97;;;15.40;;
12603;SDS011;6367;52.508;13.284;2023-01-29T09:33:45;25.07;;;17.10;;
12603;SDS011;6367;52.508;13.284;2023-01-29T09:36:10;23.53;;;15.87;;
12603;SDS011;6367;52.508;13.284;2023-01-29T09:38:36;24.37;;;15.70;;
12603;SDS011;6367;52.508;13.284;2023-01-29T09:49:21;19.33;;;14.40;;
12603;SDS011;6367;52.508;13.284;2023-01-29T09:52:37;20.60;;;14.77;;
12603;SDS011;6367;52.508;13.284;2023-01-29T09:54:48;19.37;;;13.57;;
12603;SDS011;6367;52.508;13.284;2023-01-29T09:57:17;21.97;;;14.63;;
12603;SDS011;6367;52.508;13.284;2023-01-29T10:00:03;22.57;;;15.20;;
12603;SDS011;6367;52.508;13.284;2023-01-29T10:02:45;23.43;;;16.03;;
12603;SDS011;6367;52.508;13.284;2023-01-29T10:08:50;18.90;;;12.70;;
12603;SDS011;6367;52.508;13.284;2023-01-29T10:14:03;18.30;;;13.30;;
12603;SDS011;6367;52.508;13.284;2023-01-29T10:19:39;21.47;;;13.57;;
12603;SDS011;6367;52.508;13.284;2023-01-29T10:25:02;17.90;;;12.80;;
12603;SDS011;6367;52.508;13.284;2023-01-29T10:27:31;17.67;;;13.23;;
12603;SDS011;6367;52.508;13.284;2023-01-29T10:29:59;18.97;;;12.50;;
12603;SDS011;6367;52.508;13.284;2023-01-29T10:32:30;19.60;;;12.87;;
12603;SDS011;6367;52.508;13.284;2023-01-29T10:35:04;18.70;;;13.50;;
12603;SDS011;6367;52.508;13.284;2023-01-29T10:37:40;16.23;;;12.50;;
12603;SDS011;6367;52.508;13.284;2023-01-29T10:40:15;16.00;;;11.80;;
12603;SDS011;6367;52.508;13.284;2023-01-29T10:42:44;18.00;;;13.20;;
12603;SDS011;6367;52.508;13.284;2023-01-29T10:45:36;16.23;;;11.83;;
12603;SDS011;6367;52.508;13.284;2023-01-29T10:48:34;15.80;;;11.97;;
12603;SDS011;6367;52.508;13.284;2023-01-29T10:51:38;16.40;;;11.70;;
12603;SDS011;6367;52.508;13.284;2023-01-29T10:57:04;18.50;;;13.20;;
12603;SDS011;6367;52.508;13.284;2023-01-29T10:59:48;18.57;;;12.80;;
12603;SDS011;6367;52.508;13.284;2023-01-29T11:02:23;16.07;;;11.67;;
12603;SDS011;6367;52.508;13.284;2023-01-29T11:04:48;16.03;;;12.40;;
12603;SDS011;6367;52.508;13.284;2023-01-29T11:07:15;16.60;;;13.03;;
12603;SDS011;6367;52.508;13.284;2023-01-29T11:09:45;16.17;;;12.20;;
12603;SDS011;6367;52.508;13.284;2023-01-29T11:12:22;20.67;;;13.90;;
12603;SDS011;6367;52.508;13.284;2023-01-29T11:17:23;20.80;;;13.37;;
12603;SDS011;6367;52.508;13.284;2023-01-29T11:19:50;17.87;;;12.43;;
12603;SDS011;6367;52.508;13.284;2023-01-29T11:22:20;15.77;;;12.17;;
12603;SDS011;6367;52.508;13.284;2023-01-29T11:27:43;17.20;;;11.50;;
12603;SDS011;6367;52.508;13.284;2023-01-29T11:30:51;18.57;;;11.13;;
12603;SDS011;6367;52.508;13.284;2023-01-29T11:35:47;17.30;;;11.80;;
12603;SDS011;6367;52.508;13.284;2023-01-29T11:38:26;15.50;;;11.33;;
12603;SDS011;6367;52.508;13.284;2023-01-29T11:41:06;15.27;;;11.57;;
12603;SDS011;6367;52.508;13.284;2023-01-29T11:43:38;14.27;;;11.50;;
12603;SDS011;6367;52.508;13.284;2023-01-29T11:46:05;15.27;;;11.93;;
12603;SDS011;6367;52.508;13.284;2023-01-29T11:51:07;17.23;;;11.50;;
12603;SDS011;6367;52.508;13.284;2023-01-29T11:53:37;15.67;;;11.03;;
12603;SDS011;6367;52.508;13.284;2023-01-29T11:56:17;15.93;;;10.80;;
12603;SDS011;6367;52.508;13.284;2023-01-29T11:58:47;14.77;;;11.40;;
12603;SDS011;6367;52.508;13.284;2023-01-29T12:01:16;13.23;;;10.30;;
12603;SDS011;6367;52.508;13.284;2023-01-29T12:03:48;14.80;;;10.50;;
12603;SDS011;6367;52.508;13.284;2023-01-29T12:06:22;13.50;;;10.90;;
12603;SDS011;6367;52.508;13.284;2023-01-29T12:08:52;16.80;;;12.43;;
12603;SDS011;6367;52.508;13.284;2023-01-29T12:11:29;14.73;;;10.63;;
12603;SDS011;6367;52.508;13.284;2023-01-29T12:13:58;15.10;;;10.00;;
12603;SDS011;6367;52.508;13.284;2023-01-29T12:27:54;14.50;;;10.47;;
12603;SDS011;6367;52.508;13.284;2023-01-29T12:30:28;13.90;;;10.30;;
12603;SDS011;6367;52.508;13.284;2023-01-29T12:33:18;13.33;;;10.40;;
12603;SDS011;6367;52.508;13.284;2023-01-29T12:36:18;16.03;;;10.93;;
12603;SDS011;6367;52.508;13.284;2023-01-29T12:38:55;15.03;;;11.43;;
12603;SDS011;6367;52.508;13.284;2023-01-29T12:41:31;15.37;;;11.80;;
12603;SDS011;6367;52.508;13.284;2023-01-29T12:44:18;15.10;;;10.80;;
12603;SDS011;6367;52.508;13.284;2023-01-29T12:46:47;16.33;;;12.70;;
12603;SDS011;6367;52.508;13.284;2023-01-29T12:49:17;17.57;;;12.50;;
12603;SDS011;6367;52.508;13.284;2023-01-29T12:51:55;15.43;;;12.27;;
12603;SDS011;6367;52.508;13.284;2023-01-29T12:54:30;18.57;;;11.80;;
12603;SDS011;6367;52.508;13.284;2023-01-29T12:57:09;14.90;;;11.70;;
12603;SDS011;6367;52.508;13.284;2023-01-29T12:59:46;16.30;;;11.97;;
12603;SDS011;6367;52.508;13.284;2023-01-29T13:05:25;16.60;;;11.90;;
12603;SDS011;6367;52.508;13.284;2023-01-29T13:08:15;16.27;;;11.27;;
12603;SDS011;6367;52.508;13.284;2023-01-29T13:10:43;13.33;;;11.27;;
12603;SDS011;6367;52.508;13.284;2023-01-29T13:15:57;16.20;;;12.70;;
12603;SDS011;6367;52.508;13.284;2023-01-29T13:18:42;14.73;;;11.03;;
12603;SDS011;6367;52.508;13.284;2023-01-29T13:24:20;18.10;;;11.17;;
12603;SDS011;6367;52.508;13.284;2023-01-29T13:26:48;17.60;;;11.33;;
12603;SDS011;6367;52.508;13.284;2023-01-29T13:29:27;15.00;;;11.97;;
12603;SDS011;6367;52.508;13.284;2023-01-29T13:31:54;16.97;;;11.87;;
12603;SDS011;6367;52.508;13.284;2023-01-29T13:36:53;19.40;;;11.90;;
12603;SDS011;6367;52.508;13.284;2023-01-29T13:39:23;17.13;;;12.13;;
12603;SDS011;6367;52.508;13.284;2023-01-29T13:41:55;17.57;;;13.00;;
12603;SDS011;6367;52.508;13.284;2023-01-29T13:44:32;16.80;;;12.80;;
12603;SDS011;6367;52.508;13.284;2023-01-29T13:47:07;15.70;;;11.47;;
12603;SDS011;6367;52.508;13.284;2023-01-29T13:54:54;16.90;;;11.87;;
12603;SDS011;6367;52.508;13.284;2023-01-29T14:00:54;16.10;;;11.67;;
12603;SDS011;6367;52.508;13.284;2023-01-29T14:08:01;22.87;;;14.20;;
12603;SDS011;6367;52.508;13.284;2023-01-29T14:11:26;18.73;;;13.80;;
12603;SDS011;6367;52.508;13.284;2023-01-29T14:13:42;20.73;;;15.23;;
12603;SDS011;6367;52.508;13.284;2023-01-29T14:18:35;22.37;;;14.00;;
12603;SDS011;6367;52.508;13.284;2023-01-29T14:23:44;20.17;;;14.00;;
12603;SDS011;6367;52.508;13.284;2023-01-29T14:29:22;22.57;;;14.43;;
12603;SDS011;6367;52.508;13.284;2023-01-29T14:31:54;25.00;;;15.97;;
12603;SDS011;6367;52.508;13.284;2023-01-29T14:39:46;23.30;;;15.93;;
12603;SDS011;6367;52.508;13.284;2023-01-29T14:42:23;22.57;;;14.97;;
12603;SDS011;6367;52.508;13.284;2023-01-29T14:44:56;22.17;;;15.70;;
12603;SDS011;6367;52.508;13.284;2023-01-29T14:49:59;19.57;;;14.77;;
12603;SDS011;6367;52.508;13.284;2023-01-29T14:52:43;23.07;;;14.53;;
12603;SDS011;6367;52.508;13.284;2023-01-29T14:55:16;22.20;;;16.03;;
12603;SDS011;6367;52.508;13.284;2023-01-29T14:57:51;24.53;;;16.23;;
12603;SDS011;6367;52.508;13.284;2023-01-29T15:00:21;25.60;;;17.27;;
12603;SDS011;6367;52.508;13.284;2023-01-29T15:02:52;22.20;;;16.00;;
12603;SDS011;6367;52.508;13.284;2023-01-29T15:05:23;21.67;;;15.40;;
12603;SDS011;6367;52.508;13.284;2023-01-29T15:08:02;22.47;;;14.77;;
12603;SDS011;6367;52.508;13.284;2023-01-29T15:10:37;21.03;;;14.77;;
12603;SDS011;6367;52.508;13.284;2023-01-29T15:15:49;26.10;;;15.90;;
12603;SDS011;6367;52.508;13.284;2023-01-29T15:18:27;22.60;;;15.23;;
12603;SDS011;6367;52.508;13.284;2023-01-29T15:21:01;21.93;;;15.43;;
12603;SDS011;6367;52.508;13.284;2023-01-29T15:23:29;20.10;;;13.97;;
12603;SDS011;6367;52.508;13.284;2023-01-29T15:25:57;21.47;;;15.20;;
12603;SDS011;6367;52.508;13.284;2023-01-29T15:28:27;22.27;;;15.80;;
12603;SDS011;6367;52.508;13.284;2023-01-29T15:30:55;22.43;;;14.07;;
12603;SDS011;6367;52.508;13.284;2023-01-29T15:33:23;20.53;;;14.27;;
12603;SDS011;6367;52.508;13.284;2023-01-29T15:35:54;20.20;;;13.63;;
12603;SDS011;6367;52.508;13.284;2023-01-29T15:38:24;22.40;;;14.80;;
12603;SDS011;6367;52.508;13.284;2023-01-29T15:40:57;16.90;;;12.50;;
12603;SDS011;6367;52.508;13.284;2023-01-29T15:43:26;21.27;;;15.00;;
12603;SDS011;6367;52.508;13.284;2023-01-29T15:46:08;22.23;;;15.17;;
12603;SDS011;6367;52.508;13.284;2023-01-29T15:48:43;21.10;;;14.20;;
12603;SDS011;6367;52.508;13.284;2023-01-29T15:51:13;18.03;;;13.20;;
12603;SDS011;6367;52.508;13.284;2023-01-29T15:53:46;17.60;;;13.93;;
12603;SDS011;6367;52.508;13.284;2023-01-29T15:56:22;19.80;;;13.53;;
12603;SDS011;6367;52.508;13.284;2023-01-29T15:58:53;20.37;;;14.80;;
12603;SDS011;6367;52.508;13.284;2023-01-29T16:01:24;21.37;;;14.53;;
12603;SDS011;6367;52.508;13.284;2023-01-29T16:03:51;21.20;;;14.10;;
12603;SDS011;6367;52.508;13.284;2023-01-29T16:06:17;22.83;;;15.17;;
12603;SDS011;6367;52.508;13.284;2023-01-29T16:08:47;19.50;;;13.20;;
12603;SDS011;6367;52.508;13.284;2023-01-29T16:11:15;20.83;;;13.73;;
12603;SDS011;6367;52.508;13.284;2023-01-29T16:13:43;17.60;;;13.20;;
12603;SDS011;6367;52.508;13.284;2023-01-29T16:18:40;21.03;;;14.27;;
12603;SDS011;6367;52.508;13.284;2023-01-29T16:23:54;19.53;;;14.07;;
12603;SDS011;6367;52.508;13.284;2023-01-29T16:26:28;21.47;;;14.67;;
12603;SDS011;6367;52.508;13.284;2023-01-29T16:29:06;20.37;;;13.37;;
12603;SDS011;6367;52.508;13.284;2023-01-29T16:31:34;19.17;;;14.30;;
12603;SDS011;6367;52.508;13.284;2023-01-29T16:34:35;18.93;;;14.40;;
12603;SDS011;6367;52.508;13.284;2023-01-29T16:37:02;19.67;;;13.90;;
12603;SDS011;6367;52.508;13.284;2023-01-29T16:39:37;21.17;;;14.27;;
12603;SDS011;6367;52.508;13.284;2023-01-29T16:47:11;21.33;;;12.73;;
12603;SDS011;6367;52.508;13.284;2023-01-29T16:52:14;20.87;;;15.47;;
12603;SDS011;6367;52.508;13.284;2023-01-29T16:54:42;18.20;;;12.53;;
12603;SDS011;6367;52.508;13.284;2023-01-29T16:57:15;20.70;;;14.03;;
12603;SDS011;6367;52.508;13.284;2023-01-29T16:59:56;21.27;;;13.90;;
12603;SDS011;6367;52.508;13.284;2023-01-29T17:02:27;18.80;;;13.53;;
12603;SDS011;6367;52.508;13.284;2023-01-29T17:05:01;19.73;;;13.17;;
12603;SDS011;6367;52.508;13.284;2023-01-29T17:07:30;21.23;;;13.60;;
12603;SDS011;6367;52.508;13.284;2023-01-29T17:09:58;18.60;;;13.10;;
12603;SDS011;6367;52.508;13.284;2023-01-29T17:12:26;21.50;;;15.53;;
12603;SDS011;6367;52.508;13.284;2023-01-29T17:14:57;19.70;;;14.23;;
12603;SDS011;6367;52.508;13.284;2023-01-29T17:17:31;18.20;;;12.57;;
12603;SDS011;6367;52.508;13.284;2023-01-29T17:20:16;16.90;;;13.10;;
12603;SDS011;6367;52.508;13.284;2023-01-29T17:22:42;17.90;;;12.70;;
12603;SDS011;6367;52.508;13.284;2023-01-29T17:25:12;18.67;;;12.83;;
12603;SDS011;6367;52.508;13.284;2023-01-29T17:27:39;18.47;;;13.87;;